Decoded Metar for HECA (CAIRO in EGYPT) (IATA:CAI) | Meteo·Mobile Aviation Weather
aviador You're here:

HECA Decoded Metar

CAIRO in EGYPT
Report Time2018-08-20 01:00:00
UTC Time2018-08-20 01:26:35
Flight Rules vfr VFR
Wind010° at 04 kt
W.Decomp.*RWY 05: 2.9 kt HW 2.8 kt LCW
W.Rank010° ranks 9
Current wind is below 010° avg. (8.0)
Visibility9999 m
Phenomena:N/A
Clouds:N/A
Expected CloudBase > 2,000 ft AGL from Temp-Dew spread
CeilingNone
Temp27°C (ISA +12)
Dew Point22°C (74% RH)
Heat Index29.2°C
QNH1006 hPa
Density Alt2,267 ft
Elevation243 ft
Report Wrong Elevation
Raw Report
METAR HECA 200100Z 01004KT CAVOK 27/22 Q1006 NOSIG=

Extra information for HECA:More info

Metar Taf Metar & Taf Last 4 Metars F.Rules Stats Wind Profile Meteogram Temp Stats Airport Information Weather charts Add Link Nearby VenuesMetar ALERT Operation Metar Decoded Social comments